Time;durP1;ratioP1;P1;durP2;ratioP2;P2;SDS_P1;SDS_P2;PMS_P1;PMS_P2;Temp;Humidity;BMP_temperature;BMP_pressure;BME280_temperature;BME280_humidity;BME280_pressure;Samples;Min_cycle;Max_cycle;Signal;HPM_P1;HPM_P2
2022/10/19 00:01:20;;;;;;;7.93;3.10;;;14.20;99.90;;;;;;5050551;28;20208;-33
2022/10/19 00:03:51;;;;;;;9.30;3.57;;;14.20;99.90;;;;;;5050416;28;20208;-33
2022/10/19 00:06:24;;;;;;;8.53;3.20;;;14.10;99.90;;;;;;5050280;28;20311;-32
2022/10/19 00:08:56;;;;;;;9.47;3.23;;;14.10;99.90;;;;;;5049379;28;20185;-32
2022/10/19 00:11:24;;;;;;;9.93;3.30;;;14.10;99.90;;;;;;5050568;28;20211;-32
2022/10/19 00:13:53;;;;;;;6.07;3.10;;;14.10;99.90;;;;;;5050304;28;20192;-32
2022/10/19 00:16:22;;;;;;;9.63;3.50;;;14.10;99.90;;;;;;5050164;28;20307;-32
2022/10/19 00:18:49;;;;;;;9.20;3.67;;;14.10;99.90;;;;;;5049969;28;20232;-32
2022/10/19 00:21:19;;;;;;;9.90;3.63;;;14.00;99.90;;;;;;5049974;28;20197;-33
2022/10/19 00:23:47;;;;;;;7.70;2.97;;;14.00;99.90;;;;;;5050079;28;20212;-33
2022/10/19 00:26:15;;;;;;;7.50;2.83;;;14.00;99.90;;;;;;5049828;28;20224;-33
2022/10/19 00:28:43;;;;;;;8.03;2.40;;;14.00;99.90;;;;;;5049788;28;20204;-33
2022/10/19 00:31:13;;;;;;;7.93;2.93;;;13.90;99.90;;;;;;5049824;28;20193;-33
2022/10/19 00:33:41;;;;;;;7.53;2.60;;;13.90;99.90;;;;;;5050043;28;20215;-33
2022/10/19 00:36:29;;;;;;;8.10;2.97;;;13.90;99.90;;;;;;5048476;28;20211;-33
2022/10/19 00:38:57;;;;;;;10.33;3.30;;;13.90;99.90;;;;;;5049772;28;20184;-32
2022/10/19 00:41:27;;;;;;;4.57;2.43;;;13.90;99.90;;;;;;5049547;28;20311;-33
2022/10/19 00:44:01;;;;;;;9.00;3.00;;;13.90;99.90;;;;;;5049657;28;20196;-32
2022/10/19 00:46:33;;;;;;;6.30;2.80;;;13.90;99.90;;;;;;5049320;28;20729;-33
2022/10/19 00:49:09;;;;;;;7.83;3.27;;;13.90;99.90;;;;;;5048266;28;20477;-33
2022/10/19 00:51:41;;;;;;;5.77;2.63;;;13.90;99.90;;;;;;5049274;28;20694;-33
2022/10/19 00:54:11;;;;;;;7.57;2.87;;;13.90;99.90;;;;;;5049639;28;20223;-33
2022/10/19 00:56:41;;;;;;;10.23;3.30;;;13.90;99.90;;;;;;5049470;28;20550;-33
2022/10/19 00:59:09;;;;;;;13.13;3.80;;;13.80;99.90;;;;;;5060538;28;20290;-33
2022/10/19 01:01:37;;;;;;;9.67;3.07;;;13.80;99.90;;;;;;5065518;28;20236;-32
2022/10/19 01:04:05;;;;;;;8.27;3.10;;;13.80;99.90;;;;;;5054499;28;20688;-33
2022/10/19 01:06:33;;;;;;;11.13;3.60;;;13.80;99.90;;;;;;5056945;28;20216;-33
2022/10/19 01:09:01;;;;;;;8.60;3.10;;;13.70;99.90;;;;;;5049537;28;20211;-33
2022/10/19 01:12:05;;;;;;;8.43;3.20;;;13.70;99.90;;;;;;5048770;28;20250;-33
2022/10/19 01:14:44;;;;;;;7.20;3.20;;;13.70;99.90;;;;;;5048685;28;20207;-33
2022/10/19 01:17:23;;;;;;;13.10;3.33;;;13.70;99.90;;;;;;5055743;28;20235;-33
2022/10/19 01:20:15;;;;;;;8.23;3.90;;;13.70;99.90;;;;;;5052266;28;20232;-33
2022/10/19 01:23:13;;;;;;;10.77;3.77;;;13.70;99.90;;;;;;5048942;28;20258;-32
2022/10/19 01:26:02;;;;;;;9.10;2.90;;;13.70;99.90;;;;;;5048731;28;20224;-32
2022/10/19 01:28:41;;;;;;;8.57;3.40;;;13.70;99.90;;;;;;5048533;28;20196;-32
2022/10/19 01:31:26;;;;;;;7.07;2.90;;;13.60;99.90;;;;;;5048664;28;20193;-32
2022/10/19 01:34:14;;;;;;;5.27;2.60;;;13.70;99.90;;;;;;5048493;28;20208;-34
2022/10/19 01:37:19;;;;;;;9.20;4.03;;;13.60;99.90;;;;;;5048702;28;20211;-32
2022/10/19 01:39:58;;;;;;;6.80;2.90;;;13.50;99.90;;;;;;5047493;28;20208;-33
2022/10/19 01:42:31;;;;;;;9.93;3.23;;;13.60;99.90;;;;;;5048983;28;20236;-33
2022/10/19 01:45:30;;;;;;;7.97;3.03;;;13.50;99.90;;;;;;5047290;28;20240;-33
2022/10/19 01:48:08;;;;;;;6.57;3.03;;;13.50;99.90;;;;;;5048198;28;20218;-33
2022/10/19 01:50:42;;;;;;;9.17;3.40;;;13.50;99.90;;;;;;5048639;28;20231;-33
2022/10/19 01:53:15;;;;;;;11.70;3.70;;;13.50;99.90;;;;;;5048597;28;20230;-33
2022/10/19 01:55:46;;;;;;;11.20;4.27;;;13.40;99.90;;;;;;5048431;28;20239;-33
2022/10/19 01:58:25;;;;;;;8.70;3.23;;;13.40;99.90;;;;;;5048279;28;20181;-33
2022/10/19 02:00:57;;;;;;;8.63;3.17;;;13.40;99.90;;;;;;5048233;28;20208;-33
2022/10/19 02:03:26;;;;;;;10.50;3.60;;;13.40;99.90;;;;;;5048418;28;20192;-33
2022/10/19 02:05:58;;;;;;;11.53;4.10;;;13.40;99.90;;;;;;5048097;28;20228;-33
2022/10/19 02:08:37;;;;;;;7.17;3.07;;;13.30;99.90;;;;;;5046654;28;20202;-33
2022/10/19 02:11:05;;;;;;;12.40;3.60;;;13.30;99.90;;;;;;5048220;28;20279;-32
2022/10/19 02:13:35;;;;;;;13.50;3.67;;;13.30;99.90;;;;;;5048270;28;20663;-32
2022/10/19 02:16:06;;;;;;;14.20;3.83;;;13.30;99.90;;;;;;5048103;28;20218;-31
2022/10/19 02:18:38;;;;;;;15.03;4.20;;;13.20;99.90;;;;;;5046300;28;20267;-33
2022/10/19 02:21:06;;;;;;;10.80;3.63;;;13.10;99.90;;;;;;5047975;28;20208;-32
2022/10/19 02:23:38;;;;;;;14.33;3.43;;;13.10;99.90;;;;;;5047720;28;20614;-32
2022/10/19 02:26:06;;;;;;;9.23;3.50;;;13.10;99.90;;;;;;5047673;28;20228;-32
2022/10/19 02:28:34;;;;;;;10.97;4.17;;;13.10;99.90;;;;;;5047694;28;20300;-32
2022/10/19 02:31:02;;;;;;;13.93;3.43;;;13.10;99.90;;;;;;5047617;28;20193;-32
2022/10/19 02:33:30;;;;;;;5.63;3.23;;;13.10;99.90;;;;;;5047450;28;20196;-33
2022/10/19 02:35:58;;;;;;;11.20;3.73;;;13.10;99.90;;;;;;5047615;28;20201;-33
2022/10/19 02:38:26;;;;;;;13.70;3.97;;;13.10;99.90;;;;;;5047728;28;20235;-33
2022/10/19 02:40:59;;;;;;;9.40;3.33;;;13.10;99.90;;;;;;5047765;28;20289;-33
2022/10/19 02:43:28;;;;;;;9.93;3.40;;;13.10;99.90;;;;;;5047802;28;20200;-33
2022/10/19 02:46:28;;;;;;;8.50;3.70;;;13.10;99.90;;;;;;5047663;28;20255;-33
2022/10/19 02:48:56;;;;;;;14.03;4.27;;;13.10;99.90;;;;;;5046966;28;20421;-33
2022/10/19 02:51:35;;;;;;;11.43;4.00;;;13.10;99.90;;;;;;5047464;28;20220;-33
2022/10/19 02:54:05;;;;;;;9.30;3.90;;;13.00;99.90;;;;;;5047988;28;20218;-33
2022/10/19 02:56:33;;;;;;;13.43;3.87;;;13.00;99.90;;;;;;5046135;28;20204;-32
2022/10/19 02:59:02;;;;;;;9.87;3.83;;;12.90;99.90;;;;;;5047644;28;20266;-32
2022/10/19 03:01:29;;;;;;;10.43;3.83;;;12.90;99.90;;;;;;5046314;28;20209;-33
2022/10/19 03:03:56;;;;;;;9.00;4.00;;;12.90;99.90;;;;;;5048174;28;20623;-33
2022/10/19 03:06:23;;;;;;;11.30;3.83;;;12.90;99.90;;;;;;5062622;28;20310;-33
2022/10/19 03:08:51;;;;;;;10.70;4.50;;;12.90;99.90;;;;;;5047539;28;20224;-33
2022/10/19 03:11:18;;;;;;;11.77;4.03;;;12.90;99.90;;;;;;5062653;28;20232;-33
2022/10/19 03:13:45;;;;;;;10.83;4.60;;;12.80;99.90;;;;;;5047654;28;20675;-33
2022/10/19 03:16:13;;;;;;;10.07;4.07;;;12.80;99.90;;;;;;5047230;28;20232;-33
2022/10/19 03:18:40;;;;;;;7.97;3.63;;;12.90;99.90;;;;;;5047200;28;20236;-33
2022/10/19 03:21:11;;;;;;;8.30;3.97;;;12.90;99.90;;;;;;5045970;28;20734;-33
2022/10/19 03:23:38;;;;;;;12.30;4.87;;;12.80;99.90;;;;;;5047260;28;20667;-33
2022/10/19 03:26:11;;;;;;;9.63;4.20;;;12.80;99.90;;;;;;5045895;28;20232;-33
2022/10/19 03:28:38;;;;;;;15.47;5.47;;;12.90;99.90;;;;;;5047254;28;20239;-33
2022/10/19 03:31:06;;;;;;;8.30;4.57;;;12.80;99.90;;;;;;5045944;28;20247;-33
2022/10/19 03:33:33;;;;;;;13.53;5.07;;;12.80;99.90;;;;;;5045938;28;20196;-33
2022/10/19 03:36:21;;;;;;;16.17;5.17;;;12.70;99.90;;;;;;5047247;28;20206;-33
2022/10/19 03:38:50;;;;;;;16.77;5.33;;;12.70;99.90;;;;;;5047089;28;20748;-32
2022/10/19 03:41:24;;;;;;;13.13;5.33;;;12.70;99.90;;;;;;5047130;28;20217;-33
2022/10/19 03:43:55;;;;;;;11.37;5.00;;;12.70;99.90;;;;;;5046890;28;20195;-33
2022/10/19 03:46:23;;;;;;;13.97;6.03;;;12.70;99.90;;;;;;5050760;28;20819;-33
2022/10/19 03:48:50;;;;;;;11.30;5.00;;;12.60;99.90;;;;;;5049130;28;20295;-33
2022/10/19 03:51:20;;;;;;;10.97;5.10;;;12.60;99.90;;;;;;5051082;28;20200;-33
2022/10/19 03:53:55;;;;;;;11.20;5.40;;;12.60;99.90;;;;;;5050578;28;20208;-33
2022/10/19 03:56:23;;;;;;;10.80;5.83;;;12.70;99.90;;;;;;5050631;28;20985;-33
2022/10/19 03:58:53;;;;;;;12.37;5.33;;;12.60;99.90;;;;;;5050550;28;20196;-33
2022/10/19 04:01:24;;;;;;;12.93;5.40;;;12.60;99.90;;;;;;5050420;28;20262;-33
2022/10/19 04:03:59;;;;;;;14.33;5.80;;;12.60;99.90;;;;;;5050430;28;20208;-33
2022/10/19 04:06:30;;;;;;;16.60;5.97;;;12.60;99.90;;;;;;5050599;28;20297;-32
2022/10/19 04:08:58;;;;;;;13.17;5.90;;;12.60;99.90;;;;;;5050472;28;20654;-32
2022/10/19 04:11:28;;;;;;;14.50;5.97;;;12.60;99.90;;;;;;5050335;28;20216;-32
2022/10/19 04:13:57;;;;;;;12.73;6.10;;;12.60;99.90;;;;;;5050477;28;20727;-32
2022/10/19 04:16:26;;;;;;;12.30;5.20;;;12.50;99.90;;;;;;5050130;28;20211;-32
2022/10/19 04:18:54;;;;;;;14.13;5.63;;;12.60;99.90;;;;;;5049812;28;20246;-32
2022/10/19 04:21:30;;;;;;;16.77;5.57;;;12.60;99.90;;;;;;5050040;28;20303;-32
2022/10/19 04:24:05;;;;;;;14.83;5.90;;;12.50;99.90;;;;;;5050609;28;20200;-31
2022/10/19 04:26:39;;;;;;;12.07;5.23;;;12.60;99.90;;;;;;5049954;28;20223;-32
2022/10/19 04:29:07;;;;;;;10.93;5.07;;;12.60;99.90;;;;;;5050060;28;20219;-32
2022/10/19 04:31:35;;;;;;;13.30;5.13;;;12.60;99.90;;;;;;5049841;28;20201;-32
2022/10/19 04:34:02;;;;;;;11.10;5.13;;;12.60;99.90;;;;;;5050024;28;20299;-32
2022/10/19 04:36:30;;;;;;;11.47;5.87;;;12.50;99.90;;;;;;5049889;28;20574;-33
2022/10/19 04:38:57;;;;;;;10.13;5.43;;;12.50;99.90;;;;;;5049827;28;20212;-31
2022/10/19 04:41:24;;;;;;;11.33;5.63;;;12.50;99.90;;;;;;5049564;28;20689;-32
2022/10/19 04:44:00;;;;;;;13.67;5.80;;;12.50;99.90;;;;;;5049523;28;20207;-31
2022/10/19 04:46:28;;;;;;;11.53;5.40;;;12.50;99.90;;;;;;5049778;28;20305;-31
2022/10/19 04:48:56;;;;;;;12.93;5.30;;;12.40;99.90;;;;;;5049751;28;20207;-33
2022/10/19 04:51:24;;;;;;;12.67;6.30;;;12.40;99.90;;;;;;5049534;28;20235;-31
2022/10/19 04:53:54;;;;;;;11.37;5.70;;;12.50;99.90;;;;;;5049579;28;20247;-31
2022/10/19 04:56:26;;;;;;;15.63;5.50;;;12.40;99.90;;;;;;5050066;28;20607;-32
2022/10/19 04:58:57;;;;;;;18.37;6.13;;;12.40;99.90;;;;;;5049531;28;20207;-31
2022/10/19 05:01:26;;;;;;;10.50;5.47;;;12.40;99.90;;;;;;5049434;28;20606;-32
2022/10/19 05:04:03;;;;;;;16.33;6.27;;;12.40;99.90;;;;;;5049208;28;20777;-31
2022/10/19 05:06:31;;;;;;;14.20;5.97;;;12.30;99.90;;;;;;5047763;28;20335;-32
2022/10/19 05:08:59;;;;;;;8.33;5.57;;;12.30;99.90;;;;;;5049106;28;20227;-32
2022/10/19 05:11:27;;;;;;;14.53;5.67;;;12.30;99.90;;;;;;5049074;28;20204;-31
2022/10/19 05:13:55;;;;;;;14.03;5.90;;;12.30;99.90;;;;;;5049294;28;20224;-31
2022/10/19 05:16:23;;;;;;;13.10;5.80;;;12.20;99.90;;;;;;5049026;28;20204;-31
2022/10/19 05:18:55;;;;;;;10.03;5.23;;;12.20;99.90;;;;;;5048653;28;20238;-31
2022/10/19 05:21:23;;;;;;;11.87;6.23;;;12.30;99.90;;;;;;5048999;28;20291;-32
2022/10/19 05:23:51;;;;;;;19.47;6.17;;;12.20;99.90;;;;;;5063926;28;20575;-31
2022/10/19 05:26:24;;;;;;;10.13;6.07;;;12.10;99.90;;;;;;5047329;28;20220;-30
2022/10/19 05:28:56;;;;;;;12.70;5.87;;;12.10;99.90;;;;;;5049154;28;20192;-31
2022/10/19 05:31:28;;;;;;;16.10;6.13;;;12.10;99.90;;;;;;5048923;28;20181;-33
2022/10/19 05:33:56;;;;;;;18.80;6.70;;;12.10;99.90;;;;;;5048670;28;20181;-31
2022/10/19 05:36:35;;;;;;;13.80;6.63;;;12.10;99.90;;;;;;5046857;28;20596;-31
2022/10/19 05:39:10;;;;;;;13.87;6.13;;;12.10;99.90;;;;;;5063685;28;20298;-31
2022/10/19 05:41:38;;;;;;;15.87;5.63;;;12.10;99.90;;;;;;5048539;28;20212;-31
2022/10/19 05:44:05;;;;;;;10.67;5.83;;;12.10;99.90;;;;;;5048333;28;20216;-31
2022/10/19 05:46:35;;;;;;;15.83;6.30;;;12.10;99.90;;;;;;5048141;28;20224;-31
2022/10/19 05:49:02;;;;;;;14.20;6.63;;;12.10;99.90;;;;;;5048342;28;20203;-32
2022/10/19 05:51:30;;;;;;;12.77;6.00;;;12.00;99.90;;;;;;5048199;28;20240;-31
2022/10/19 05:53:57;;;;;;;11.37;5.97;;;12.10;99.90;;;;;;5048199;28;20215;-33
2022/10/19 05:56:27;;;;;;;10.47;5.80;;;12.00;99.90;;;;;;5046794;28;20662;-31
2022/10/19 05:58:56;;;;;;;13.00;5.60;;;12.00;99.90;;;;;;5048008;28;20647;-30
2022/10/19 06:01:24;;;;;;;19.83;6.37;;;12.00;99.90;;;;;;5048154;28;20203;-31
2022/10/19 06:03:54;;;;;;;13.60;6.40;;;12.00;99.90;;;;;;5048151;28;20239;-31
2022/10/19 06:06:23;;;;;;;15.27;6.50;;;12.00;99.90;;;;;;5047294;28;20205;-31
2022/10/19 06:08:51;;;;;;;12.83;6.23;;;12.00;99.90;;;;;;5047907;28;20199;-31
2022/10/19 06:11:24;;;;;;;15.43;6.17;;;12.00;99.90;;;;;;5047863;28;20258;-31
2022/10/19 06:13:56;;;;;;;17.23;6.30;;;12.00;99.90;;;;;;5047952;28;20212;-31
2022/10/19 06:16:25;;;;;;;13.33;6.10;;;12.00;99.90;;;;;;5048153;28;20876;-31
2022/10/19 06:18:54;;;;;;;15.73;6.37;;;12.00;99.90;;;;;;5029841;28;20707;-33
2022/10/19 06:21:25;;;;;;;13.23;6.60;;;11.90;99.90;;;;;;5047525;28;20219;-32
2022/10/19 06:23:57;;;;;;;13.07;6.40;;;11.90;99.90;;;;;;5047589;28;20742;-31
2022/10/19 06:26:25;;;;;;;16.77;6.27;;;11.90;99.90;;;;;;5062571;28;20694;-31
2022/10/19 06:28:59;;;;;;;15.30;7.03;;;12.00;99.90;;;;;;5062694;28;20204;-31
2022/10/19 06:31:27;;;;;;;13.77;6.43;;;11.90;99.90;;;;;;5047561;28;20223;-31
2022/10/19 06:33:55;;;;;;;11.13;6.37;;;11.90;99.90;;;;;;5047956;28;20205;-31
2022/10/19 06:36:25;;;;;;;10.07;5.97;;;11.90;99.90;;;;;;5047441;28;20617;-30
2022/10/19 06:38:53;;;;;;;18.93;6.93;;;11.90;99.90;;;;;;5047685;28;20200;-31
2022/10/19 06:41:20;;;;;;;15.67;6.53;;;11.90;99.90;;;;;;5047418;28;20200;-31
2022/10/19 06:43:49;;;;;;;17.33;6.47;;;11.90;99.90;;;;;;5047364;28;20207;-31
2022/10/19 06:46:20;;;;;;;14.97;6.20;;;12.00;99.90;;;;;;5046133;28;20234;-30
2022/10/19 06:49:00;;;;;;;16.43;6.53;;;12.00;99.90;;;;;;5047517;28;20196;-30
2022/10/19 06:51:30;;;;;;;15.20;6.17;;;12.00;99.90;;;;;;5047366;28;20223;-30
2022/10/19 06:53:57;;;;;;;14.93;6.40;;;12.00;99.90;;;;;;5047236;28;20180;-32
2022/10/19 06:56:25;;;;;;;15.23;6.90;;;12.00;99.90;;;;;;5045763;28;20219;-31
2022/10/19 06:58:53;;;;;;;16.13;7.10;;;12.00;99.90;;;;;;5045749;28;20212;-31
2022/10/19 07:01:21;;;;;;;13.57;6.50;;;12.00;99.90;;;;;;5047332;28;20207;-31
2022/10/19 07:03:54;;;;;;;12.47;6.60;;;12.00;99.90;;;;;;5047346;28;20250;-31
2022/10/19 07:06:22;;;;;;;12.93;6.20;;;12.00;99.90;;;;;;5047455;28;20192;-31
2022/10/19 07:08:50;;;;;;;10.40;6.27;;;12.00;99.90;;;;;;5047304;28;20296;-31
2022/10/19 07:11:19;;;;;;;18.70;6.77;;;12.10;99.90;;;;;;5046801;28;20196;-31
2022/10/19 07:13:51;;;;;;;14.03;7.33;;;12.10;99.90;;;;;;5046793;28;20196;-31
2022/10/19 07:16:19;;;;;;;16.97;7.53;;;12.10;99.90;;;;;;5046633;28;20220;-31
2022/10/19 07:18:51;;;;;;;16.67;7.37;;;12.10;99.90;;;;;;5063755;28;20339;-32
2022/10/19 07:21:20;;;;;;;17.23;7.20;;;12.10;99.90;;;;;;5050558;28;20185;-31
2022/10/19 07:23:48;;;;;;;19.13;8.03;;;12.10;99.90;;;;;;5050406;28;20212;-31
2022/10/19 07:26:20;;;;;;;18.73;8.37;;;12.00;99.90;;;;;;5050199;28;20586;-31
2022/10/19 07:28:48;;;;;;;16.67;8.27;;;12.00;99.90;;;;;;5065416;28;20220;-32
2022/10/19 07:31:17;;;;;;;16.77;7.80;;;12.00;99.90;;;;;;5065154;28;20289;-31
2022/10/19 07:33:46;;;;;;;11.97;7.10;;;12.10;99.90;;;;;;5048690;28;20196;-31
2022/10/19 07:36:15;;;;;;;19.10;8.90;;;12.10;99.90;;;;;;5050220;28;20679;-31
2022/10/19 07:38:42;;;;;;;18.47;9.47;;;12.20;99.90;;;;;;5050424;28;20204;-31
2022/10/19 07:41:13;;;;;;;20.60;9.50;;;12.20;99.90;;;;;;5050380;28;20286;-31
2022/10/19 07:43:43;;;;;;;16.23;8.80;;;12.20;99.90;;;;;;5049889;28;20208;-31
2022/10/19 07:46:16;;;;;;;15.77;8.57;;;12.30;99.90;;;;;;5050419;28;20546;-33
2022/10/19 07:48:44;;;;;;;17.40;8.63;;;12.30;99.90;;;;;;5049935;28;20331;-32
2022/10/19 07:51:13;;;;;;;16.63;9.37;;;12.30;99.90;;;;;;5048770;28;20196;-30
2022/10/19 07:53:41;;;;;;;18.87;10.00;;;12.40;99.90;;;;;;5050323;28;20262;-32
2022/10/19 07:56:11;;;;;;;18.10;9.70;;;12.40;99.90;;;;;;5049712;28;20200;-32
2022/10/19 07:58:39;;;;;;;18.90;9.53;;;12.50;99.90;;;;;;5049989;28;20204;-31
2022/10/19 08:01:11;;;;;;;18.30;9.93;;;12.50;99.90;;;;;;5049686;28;20216;-32
2022/10/19 08:03:39;;;;;;;16.00;9.53;;;12.50;99.90;;;;;;5049760;28;20200;-31
2022/10/19 08:06:26;;;;;;;20.10;10.53;;;12.50;99.90;;;;;;5048283;28;20204;-31
2022/10/19 08:08:54;;;;;;;17.27;10.23;;;12.50;99.90;;;;;;5049459;28;20224;-32
2022/10/19 08:11:25;;;;;;;15.30;9.37;;;12.60;99.90;;;;;;5049601;28;20193;-32
2022/10/19 08:13:54;;;;;;;17.67;10.30;;;12.60;99.90;;;;;;5049504;28;20749;-31
2022/10/19 08:16:23;;;;;;;23.23;10.57;;;12.60;99.90;;;;;;5049412;28;20307;-31
2022/10/19 08:18:54;;;;;;;14.90;9.40;;;12.60;99.90;;;;;;5049178;28;20355;-31
2022/10/19 08:21:22;;;;;;;18.00;10.07;;;12.70;99.90;;;;;;5049552;28;20200;-31
2022/10/19 08:23:49;;;;;;;18.67;9.20;;;12.80;99.90;;;;;;5049268;28;20258;-32
2022/10/19 08:26:16;;;;;;;15.73;9.57;;;12.80;99.90;;;;;;5049216;28;20271;-32
2022/10/19 08:28:43;;;;;;;16.40;9.27;;;12.90;99.90;;;;;;5048945;28;20236;-32
2022/10/19 08:31:21;;;;;;;16.90;8.73;;;13.00;99.90;;;;;;5048170;28;20211;-32
2022/10/19 08:33:54;;;;;;;18.90;9.20;;;13.00;99.90;;;;;;5048652;28;20734;-31
2022/10/19 08:36:22;;;;;;;16.10;8.77;;;13.10;99.90;;;;;;5048427;28;20683;-32
2022/10/19 08:38:49;;;;;;;13.03;9.40;;;13.20;99.90;;;;;;5047199;28;20208;-31
2022/10/19 08:41:36;;;;;;;19.47;9.67;;;13.20;99.90;;;;;;5049001;28;20224;-32
2022/10/19 08:44:23;;;;;;;23.33;9.77;;;13.20;99.90;;;;;;5048814;28;20215;-33
2022/10/19 08:47:13;;;;;;;14.77;8.50;;;13.20;99.90;;;;;;5049034;28;20211;-31
2022/10/19 08:49:42;;;;;;;18.87;8.63;;;13.30;99.90;;;;;;5047264;28;20629;-31
2022/10/19 08:52:20;;;;;;;15.07;8.63;;;13.30;99.90;;;;;;5048719;28;20195;-31
2022/10/19 08:54:57;;;;;;;15.47;9.00;;;13.30;99.90;;;;;;5049281;28;20200;-32
2022/10/19 08:57:28;;;;;;;18.53;8.90;;;13.40;99.90;;;;;;5048496;28;20200;-31
2022/10/19 08:59:59;;;;;;;21.43;9.97;;;13.40;99.90;;;;;;5048426;28;20196;-31
2022/10/19 09:03:02;;;;;;;18.53;9.10;;;13.40;99.90;;;;;;5048632;28;20261;-32
2022/10/19 09:05:37;;;;;;;13.33;8.17;;;13.50;99.90;;;;;;5048495;28;20206;-34
2022/10/19 09:08:08;;;;;;;18.53;9.27;;;13.50;99.90;;;;;;5048450;28;20584;-32
2022/10/19 09:10:44;;;;;;;15.93;8.13;;;13.60;99.90;;;;;;5048298;28;20196;-32
2022/10/19 09:13:33;;;;;;;23.40;9.27;;;13.70;99.90;;;;;;5048243;28;20296;-31
2022/10/19 09:16:20;;;;;;;14.43;7.87;;;13.70;99.90;;;;;;5048274;28;20242;-31
2022/10/19 09:18:49;;;;;;;33.17;9.97;;;13.70;99.90;;;;;;5047985;28;21114;-31
2022/10/19 09:21:45;;;;;;;15.97;7.97;;;13.80;99.90;;;;;;5048274;28;20228;-31
2022/10/19 09:24:27;;;;;;;17.30;8.20;;;13.80;99.90;;;;;;5048071;28;20218;-34
2022/10/19 09:26:58;;;;;;;14.20;8.13;;;13.90;99.90;;;;;;5048003;28;20190;-35
2022/10/19 09:29:56;;;;;;;13.47;7.47;;;14.00;99.90;;;;;;5047837;28;20658;-34
2022/10/19 09:32:34;;;;;;;16.87;7.77;;;14.00;99.90;;;;;;5046429;28;20195;-33
2022/10/19 09:35:15;;;;;;;17.13;7.90;;;14.00;99.90;;;;;;5047987;28;20204;-33
2022/10/19 09:37:47;;;;;;;15.17;8.23;;;14.20;99.90;;;;;;5047985;28;20678;-34
2022/10/19 09:40:21;;;;;;;13.70;6.90;;;14.20;99.90;;;;;;5048073;28;20200;-34
2022/10/19 09:42:56;;;;;;;12.50;7.00;;;14.30;99.90;;;;;;5047648;28;20196;-34
2022/10/19 09:45:49;;;;;;;15.50;7.27;;;14.40;99.90;;;;;;5047878;28;20238;-34
2022/10/19 09:48:32;;;;;;;17.13;8.53;;;14.40;99.90;;;;;;5047089;28;20228;-34
2022/10/19 09:51:02;;;;;;;20.20;8.13;;;14.50;99.90;;;;;;5047561;28;20188;-34
2022/10/19 09:53:29;;;;;;;12.40;6.43;;;14.60;99.90;;;;;;5048100;28;20192;-31
2022/10/19 09:56:07;;;;;;;11.23;6.90;;;14.70;99.90;;;;;;5047374;28;20655;-31
2022/10/19 09:58:34;;;;;;;13.07;7.77;;;14.70;99.90;;;;;;5047278;28;20194;-31
2022/10/19 10:01:02;;;;;;;14.50;7.83;;;14.80;99.90;;;;;;5046955;28;20224;-31
2022/10/19 10:03:39;;;;;;;13.60;7.20;;;14.80;99.90;;;;;;5047630;28;20223;-32
2022/10/19 10:06:13;;;;;;;19.50;8.10;;;14.90;99.90;;;;;;5047397;28;20203;-31
2022/10/19 10:08:48;;;;;;;15.33;7.20;;;14.90;99.90;;;;;;5047006;28;20227;-32
2022/10/19 10:11:24;;;;;;;14.13;7.93;;;15.00;99.90;;;;;;5047116;28;20217;-31
2022/10/19 10:13:56;;;;;;;15.03;7.67;;;15.10;99.90;;;;;;5047125;28;20580;-31
2022/10/19 10:16:29;;;;;;;11.90;6.97;;;15.10;99.90;;;;;;5047120;28;20597;-32
2022/10/19 10:19:10;;;;;;;12.70;7.30;;;15.20;99.90;;;;;;5047145;28;20619;-31
2022/10/19 10:21:56;;;;;;;13.30;7.30;;;15.20;99.90;;;;;;5047144;28;20216;-34
2022/10/19 10:24:27;;;;;;;13.77;7.40;;;15.30;99.90;;;;;;5045643;28;20235;-31
2022/10/19 10:26:59;;;;;;;10.50;7.03;;;15.30;99.90;;;;;;5047369;28;20211;-34
2022/10/19 10:29:28;;;;;;;12.30;7.03;;;15.40;99.90;;;;;;5047105;28;20281;-33
2022/10/19 10:32:15;;;;;;;17.33;7.90;;;15.50;99.90;;;;;;5046721;28;20214;-34
2022/10/19 10:34:54;;;;;;;14.73;7.10;;;15.60;99.90;;;;;;5046830;28;20180;-34
2022/10/19 10:37:39;;;;;;;12.70;7.00;;;15.60;99.90;;;;;;5045467;28;20235;-34
2022/10/19 10:40:31;;;;;;;13.97;7.20;;;15.70;99.90;;;;;;5046513;28;20192;-33
2022/10/19 10:43:14;;;;;;;13.93;7.80;;;15.80;99.90;;;;;;5045171;28;20210;-33
2022/10/19 10:45:45;;;;;;;12.10;7.20;;;15.80;99.90;;;;;;5046562;28;20274;-34
2022/10/19 10:48:36;;;;;;;16.53;8.53;;;15.90;99.90;;;;;;5045258;28;20306;-34
2022/10/19 10:51:18;;;;;;;16.33;8.20;;;15.90;99.90;;;;;;5046552;28;20223;-34
2022/10/19 10:53:48;;;;;;;12.33;7.53;;;15.90;99.90;;;;;;5049029;28;20204;-34
2022/10/19 10:56:25;;;;;;;14.97;8.20;;;15.90;99.90;;;;;;5050824;28;20690;-31
2022/10/19 10:59:10;;;;;;;16.23;8.17;;;16.00;99.90;;;;;;5049088;28;20222;-30
2022/10/19 11:01:43;;;;;;;13.90;7.20;;;16.10;99.90;;;;;;5049050;28;20204;-30
2022/10/19 11:04:18;;;;;;;16.57;8.90;;;16.20;99.90;;;;;;5050440;28;20208;-31
2022/10/19 11:06:57;;;;;;;18.20;8.60;;;16.20;99.90;;;;;;5050697;28;20203;-31
2022/10/19 11:09:33;;;;;;;20.03;9.57;;;16.20;99.90;;;;;;5050682;28;20246;-31
2022/10/19 11:12:07;;;;;;;15.37;7.83;;;16.20;99.90;;;;;;5050657;28;20188;-31
2022/10/19 11:14:44;;;;;;;18.83;8.30;;;16.30;99.90;;;;;;5050309;28;20286;-34
2022/10/19 11:17:36;;;;;;;17.27;8.70;;;16.40;99.90;;;;;;5050303;28;20716;-34
2022/10/19 11:20:06;;;;;;;16.97;8.40;;;16.50;99.90;;;;;;5050216;28;20188;-34
2022/10/19 11:23:11;;;;;;;14.87;9.20;;;16.60;99.90;;;;;;5050738;28;20200;-33
2022/10/19 11:26:06;;;;;;;12.43;8.07;;;16.60;99.90;;;;;;5049431;28;20754;-34
2022/10/19 11:28:51;;;;;;;17.33;8.73;;;16.60;99.90;;;;;;5049823;28;20270;-33
2022/10/19 11:31:34;;;;;;;15.97;8.30;;;16.70;99.90;;;;;;5049676;28;20199;-34
2022/10/19 11:34:07;;;;;;;15.23;8.40;;;16.80;99.90;;;;;;5049940;28;20299;-34
2022/10/19 11:36:52;;;;;;;15.83;9.10;;;16.80;99.90;;;;;;5049743;28;20254;-33
2022/10/19 11:39:31;;;;;;;19.30;9.43;;;16.90;99.90;;;;;;5049635;28;20192;-32
2022/10/19 11:42:05;;;;;;;16.63;8.30;;;16.90;99.90;;;;;;5050120;28;20218;-33
2022/10/19 11:44:41;;;;;;;19.80;9.37;;;16.90;99.90;;;;;;5049882;28;20710;-32
2022/10/19 11:47:28;;;;;;;14.70;8.67;;;17.00;99.90;;;;;;5049383;28;20726;-32
2022/10/19 11:50:20;;;;;;;19.30;9.03;;;17.00;99.90;;;;;;5049591;28;20715;-32
2022/10/19 11:53:12;;;;;;;15.03;8.00;;;17.00;99.90;;;;;;5049805;28;20220;-32
2022/10/19 11:55:58;;;;;;;17.17;8.43;;;17.10;99.90;;;;;;5049752;28;20280;-31
2022/10/19 11:58:40;;;;;;;16.20;9.10;;;17.20;99.90;;;;;;5049170;28;20278;-32
2022/10/19 12:01:20;;;;;;;12.77;7.90;;;17.20;99.90;;;;;;5049563;28;20576;-31
2022/10/19 12:04:16;;;;;;;13.10;7.90;;;17.20;99.90;;;;;;5049173;28;20279;-32
2022/10/19 12:07:07;;;;;;;13.40;8.17;;;17.20;99.90;;;;;;5049060;28;20228;-32
2022/10/19 12:09:52;;;;;;;15.03;7.40;;;17.10;99.90;;;;;;5049278;28;20231;-32
2022/10/19 12:12:41;;;;;;;14.13;7.90;;;17.20;99.90;;;;;;5049386;28;20600;-32
2022/10/19 12:15:36;;;;;;;17.13;6.90;;;17.20;99.90;;;;;;5049338;28;20258;-32
2022/10/19 12:18:42;;;;;;;15.77;8.53;;;17.20;99.90;;;;;;5049360;28;20243;-32
2022/10/19 12:21:17;;;;;;;14.60;7.60;;;17.20;99.90;;;;;;5049156;28;20586;-32
2022/10/19 12:23:45;;;;;;;14.53;7.17;;;17.30;99.90;;;;;;5049157;28;20338;-32
2022/10/19 12:26:19;;;;;;;12.37;6.90;;;17.30;99.90;;;;;;5049196;28;20220;-33
2022/10/19 12:28:51;;;;;;;15.50;7.63;;;17.30;99.90;;;;;;5049059;28;20610;-32
2022/10/19 12:31:19;;;;;;;17.87;7.30;;;17.40;99.90;;;;;;5048962;28;20191;-33
2022/10/19 12:33:55;;;;;;;16.30;6.97;;;17.40;99.90;;;;;;5048913;28;20223;-32
2022/10/19 12:36:33;;;;;;;18.00;8.13;;;17.40;99.90;;;;;;5048929;28;20188;-32
2022/10/19 12:39:14;;;;;;;11.77;7.00;;;17.40;99.90;;;;;;5049249;28;20203;-32
2022/10/19 12:41:55;;;;;;;11.20;6.87;;;17.40;99.90;;;;;;5048835;28;20211;-32
2022/10/19 12:44:50;;;;;;;11.05;6.57;;;17.50;99.90;;;;;;5049251;28;20614;-32
2022/10/19 12:47:23;;;;;;;12.50;6.73;;;17.60;99.90;;;;;;5048670;28;20651;-31
2022/10/19 12:49:57;;;;;;;13.23;7.33;;;17.60;99.90;;;;;;5048318;28;20607;-32
2022/10/19 12:52:47;;;;;;;12.73;6.73;;;17.60;99.90;;;;;;5048502;28;20299;-32
2022/10/19 12:55:33;;;;;;;11.17;6.37;;;17.70;99.90;;;;;;5048641;28;20181;-32
2022/10/19 12:58:16;;;;;;;11.07;6.73;;;17.80;99.90;;;;;;5063480;28;20546;-33
2022/10/19 13:01:00;;;;;;;12.53;6.80;;;17.80;99.90;;;;;;5048201;28;20669;-32
2022/10/19 13:03:34;;;;;;;8.50;6.10;;;17.80;99.90;;;;;;5048763;28;20216;-32
2022/10/19 13:06:12;;;;;;;16.97;6.93;;;17.90;99.90;;;;;;5048568;28;20634;-32
2022/10/19 13:08:47;;;;;;;14.20;6.63;;;17.90;99.90;;;;;;5048460;28;20238;-32
2022/10/19 13:11:15;;;;;;;12.50;6.77;;;17.90;99.90;;;;;;5048435;28;20188;-32
2022/10/19 13:14:33;;;;;;;10.88;5.82;;;17.90;99.90;;;;;;5048148;28;20235;-32